sensor_id;sensor_type;location;lat;lon;timestamp;pressure;altitude;pressure_sealevel;temperature;humidity
39949;BME280;29070;48.102;-1.652;2023-02-19T00:04:53;102654.00;;;11.27;75.31
39949;BME280;29070;48.102;-1.652;2023-02-19T00:09:54;102652.84;;;11.30;75.47
39949;BME280;29070;48.102;-1.652;2023-02-19T00:14:54;102635.13;;;11.32;75.53
39949;BME280;29070;48.102;-1.652;2023-02-19T00:19:56;102631.81;;;11.30;75.77
39949;BME280;29070;48.102;-1.652;2023-02-19T00:24:56;102639.56;;;11.31;75.71
39949;BME280;29070;48.102;-1.652;2023-02-19T00:29:57;102630.84;;;11.31;75.83
39949;BME280;29070;48.102;-1.652;2023-02-19T00:34:57;102623.13;;;11.29;75.81
39949;BME280;29070;48.102;-1.652;2023-02-19T00:39:58;102622.44;;;11.27;76.00
39949;BME280;29070;48.102;-1.652;2023-02-19T00:44:58;102619.31;;;11.23;76.00
39949;BME280;29070;48.102;-1.652;2023-02-19T00:49:58;102614.19;;;11.22;76.22
39949;BME280;29070;48.102;-1.652;2023-02-19T00:54:59;102595.13;;;11.20;76.18
39949;BME280;29070;48.102;-1.652;2023-02-19T00:59:59;102596.25;;;11.17;76.27
39949;BME280;29070;48.102;-1.652;2023-02-19T01:05:00;102600.53;;;11.18;76.36
39949;BME280;29070;48.102;-1.652;2023-02-19T01:10:00;102586.19;;;11.13;76.40
39949;BME280;29070;48.102;-1.652;2023-02-19T01:15:00;102575.03;;;11.11;76.50
39949;BME280;29070;48.102;-1.652;2023-02-19T01:20:01;102594.69;;;11.06;76.56
39949;BME280;29070;48.102;-1.652;2023-02-19T01:25:01;102606.63;;;11.01;76.80
39949;BME280;29070;48.102;-1.652;2023-02-19T01:30:02;102592.28;;;10.95;77.20
39949;BME280;29070;48.102;-1.652;2023-02-19T01:35:02;102600.19;;;10.95;77.11
39949;BME280;29070;48.102;-1.652;2023-02-19T01:40:03;102598.06;;;10.99;77.22
39949;BME280;29070;48.102;-1.652;2023-02-19T01:45:27;102612.16;;;10.98;77.77
39949;BME280;29070;48.102;-1.652;2023-02-19T01:50:35;102606.47;;;11.02;77.26
39949;BME280;29070;48.102;-1.652;2023-02-19T01:55:37;102599.88;;;10.98;77.79
39949;BME280;29070;48.102;-1.652;2023-02-19T02:00:38;102615.66;;;10.98;77.65
39949;BME280;29070;48.102;-1.652;2023-02-19T02:05:52;102603.09;;;10.92;77.85
39949;BME280;29070;48.102;-1.652;2023-02-19T02:10:56;102609.50;;;10.90;78.04
39949;BME280;29070;48.102;-1.652;2023-02-19T02:21:34;102608.63;;;10.89;78.26
39949;BME280;29070;48.102;-1.652;2023-02-19T02:26:55;102603.38;;;10.89;78.27
39949;BME280;29070;48.102;-1.652;2023-02-19T02:32:07;102600.41;;;10.84;78.41
39949;BME280;29070;48.102;-1.652;2023-02-19T02:37:11;102602.19;;;10.83;78.67
39949;BME280;29070;48.102;-1.652;2023-02-19T02:42:12;102604.38;;;10.88;78.48
39949;BME280;29070;48.102;-1.652;2023-02-19T02:47:30;102602.03;;;10.85;78.64
39949;BME280;29070;48.102;-1.652;2023-02-19T02:52:42;102600.41;;;10.84;78.85
39949;BME280;29070;48.102;-1.652;2023-02-19T02:58:03;102608.13;;;10.85;79.04
39949;BME280;29070;48.102;-1.652;2023-02-19T03:03:05;102607.91;;;10.79;79.10
39949;BME280;29070;48.102;-1.652;2023-02-19T03:08:15;102602.56;;;10.71;79.24
39949;BME280;29070;48.102;-1.652;2023-02-19T03:13:25;102596.34;;;10.72;79.29
39949;BME280;29070;48.102;-1.652;2023-02-19T03:18:48;102596.56;;;10.78;79.17
39949;BME280;29070;48.102;-1.652;2023-02-19T03:24:10;102601.59;;;10.72;79.42
39949;BME280;29070;48.102;-1.652;2023-02-19T03:29:31;102607.53;;;10.74;79.39
39949;BME280;29070;48.102;-1.652;2023-02-19T03:34:37;102608.19;;;10.76;79.60
39949;BME280;29070;48.102;-1.652;2023-02-19T03:39:40;102603.25;;;10.73;79.72
39949;BME280;29070;48.102;-1.652;2023-02-19T03:50:20;102597.56;;;10.77;79.83
39949;BME280;29070;48.102;-1.652;2023-02-19T03:55:29;102592.69;;;10.82;79.65
39949;BME280;29070;48.102;-1.652;2023-02-19T04:00:39;102597.41;;;10.79;79.70
39949;BME280;29070;48.102;-1.652;2023-02-19T04:05:47;102591.16;;;10.80;79.83
39949;BME280;29070;48.102;-1.652;2023-02-19T04:10:49;102602.34;;;10.82;79.73
39949;BME280;29070;48.102;-1.652;2023-02-19T04:15:53;102590.88;;;10.83;79.53
39949;BME280;29070;48.102;-1.652;2023-02-19T04:20:56;102592.22;;;10.87;79.83
39949;BME280;29070;48.102;-1.652;2023-02-19T04:26:00;102604.00;;;10.83;79.71
39949;BME280;29070;48.102;-1.652;2023-02-19T04:31:00;102598.75;;;10.83;79.53
39949;BME280;29070;48.102;-1.652;2023-02-19T04:36:01;102606.47;;;10.84;79.63
39949;BME280;29070;48.102;-1.652;2023-02-19T04:41:02;102609.25;;;10.83;79.32
39949;BME280;29070;48.102;-1.652;2023-02-19T04:46:02;102604.00;;;10.83;79.36
39949;BME280;29070;48.102;-1.652;2023-02-19T04:51:04;102609.91;;;10.85;79.47
39949;BME280;29070;48.102;-1.652;2023-02-19T04:56:11;102611.97;;;10.91;79.35
39949;BME280;29070;48.102;-1.652;2023-02-19T05:01:12;102620.19;;;10.96;79.23
39949;BME280;29070;48.102;-1.652;2023-02-19T05:06:13;102623.81;;;10.95;79.29
39949;BME280;29070;48.102;-1.652;2023-02-19T05:11:13;102632.09;;;11.00;79.25
39949;BME280;29070;48.102;-1.652;2023-02-19T05:16:15;102634.25;;;11.05;79.34
39949;BME280;29070;48.102;-1.652;2023-02-19T05:21:15;102654.16;;;11.07;79.17
39949;BME280;29070;48.102;-1.652;2023-02-19T05:26:19;102655.72;;;11.00;79.11
39949;BME280;29070;48.102;-1.652;2023-02-19T05:31:20;102663.09;;;10.97;79.01
39949;BME280;29070;48.102;-1.652;2023-02-19T05:36:21;102667.13;;;10.91;79.05
39949;BME280;29070;48.102;-1.652;2023-02-19T05:41:24;102667.44;;;10.88;78.89
39949;BME280;29070;48.102;-1.652;2023-02-19T05:46:27;102662.47;;;10.85;78.99
39949;BME280;29070;48.102;-1.652;2023-02-19T05:51:31;102679.50;;;10.81;78.94
39949;BME280;29070;48.102;-1.652;2023-02-19T05:56:39;102687.88;;;10.66;78.59
39949;BME280;29070;48.102;-1.652;2023-02-19T06:01:40;102697.31;;;10.59;77.93
39949;BME280;29070;48.102;-1.652;2023-02-19T06:06:41;102697.06;;;10.53;77.90
39949;BME280;29070;48.102;-1.652;2023-02-19T06:11:41;102695.56;;;10.50;77.89
39949;BME280;29070;48.102;-1.652;2023-02-19T06:16:42;102708.97;;;10.47;77.85
39949;BME280;29070;48.102;-1.652;2023-02-19T06:21:43;102715.59;;;10.51;77.67
39949;BME280;29070;48.102;-1.652;2023-02-19T06:26:43;102710.94;;;10.45;77.34
39949;BME280;29070;48.102;-1.652;2023-02-19T06:31:44;102710.28;;;10.33;76.76
39949;BME280;29070;48.102;-1.652;2023-02-19T06:36:44;102723.66;;;10.30;77.07
39949;BME280;29070;48.102;-1.652;2023-02-19T06:41:44;102712.91;;;10.23;76.75
39949;BME280;29070;48.102;-1.652;2023-02-19T06:46:45;102713.47;;;10.17;76.85
39949;BME280;29070;48.102;-1.652;2023-02-19T06:51:45;102716.63;;;10.21;76.93
39949;BME280;29070;48.102;-1.652;2023-02-19T06:56:45;102730.22;;;10.16;76.72
39949;BME280;29070;48.102;-1.652;2023-02-19T07:01:46;102728.53;;;10.15;76.75
39949;BME280;29070;48.102;-1.652;2023-02-19T07:06:46;102738.22;;;10.15;76.63
39949;BME280;29070;48.102;-1.652;2023-02-19T07:11:46;102748.16;;;10.11;76.45
39949;BME280;29070;48.102;-1.652;2023-02-19T07:16:47;102758.66;;;10.11;76.71
39949;BME280;29070;48.102;-1.652;2023-02-19T07:21:47;102753.13;;;10.14;76.58
39949;BME280;29070;48.102;-1.652;2023-02-19T07:26:48;102757.53;;;10.23;76.96
39949;BME280;29070;48.102;-1.652;2023-02-19T07:31:48;102763.47;;;10.25;76.76
39949;BME280;29070;48.102;-1.652;2023-02-19T07:36:48;102763.75;;;10.22;76.56
39949;BME280;29070;48.102;-1.652;2023-02-19T07:41:49;102781.97;;;10.24;76.69
39949;BME280;29070;48.102;-1.652;2023-02-19T07:46:49;102777.28;;;10.27;76.71
39949;BME280;29070;48.102;-1.652;2023-02-19T07:51:49;102794.41;;;10.32;76.71
39949;BME280;29070;48.102;-1.652;2023-02-19T07:56:50;102798.94;;;10.29;76.82
39949;BME280;29070;48.102;-1.652;2023-02-19T08:01:50;102800.47;;;10.22;77.04
39949;BME280;29070;48.102;-1.652;2023-02-19T08:07:09;102809.34;;;10.21;77.14
39949;BME280;29070;48.102;-1.652;2023-02-19T08:12:10;102804.78;;;10.23;77.23
39949;BME280;29070;48.102;-1.652;2023-02-19T08:17:29;102815.81;;;10.17;77.36
39949;BME280;29070;48.102;-1.652;2023-02-19T08:22:30;102825.78;;;10.23;77.50
39949;BME280;29070;48.102;-1.652;2023-02-19T08:27:30;102825.63;;;10.25;77.46
39949;BME280;29070;48.102;-1.652;2023-02-19T08:32:30;102829.50;;;10.30;77.45
39949;BME280;29070;48.102;-1.652;2023-02-19T08:37:31;102833.22;;;10.38;77.27
39949;BME280;29070;48.102;-1.652;2023-02-19T08:42:31;102832.53;;;10.45;77.30
39949;BME280;29070;48.102;-1.652;2023-02-19T08:47:34;102820.34;;;10.44;77.16
39949;BME280;29070;48.102;-1.652;2023-02-19T08:52:35;102813.72;;;10.50;76.99
39949;BME280;29070;48.102;-1.652;2023-02-19T08:57:35;102805.94;;;10.58;77.05
39949;BME280;29070;48.102;-1.652;2023-02-19T09:02:39;102805.25;;;10.66;76.95
39949;BME280;29070;48.102;-1.652;2023-02-19T09:07:40;102806.03;;;10.76;76.88
39949;BME280;29070;48.102;-1.652;2023-02-19T09:12:40;102805.59;;;10.81;76.42
39949;BME280;29070;48.102;-1.652;2023-02-19T09:17:41;102827.63;;;10.98;76.59
39949;BME280;29070;48.102;-1.652;2023-02-19T09:22:41;102836.06;;;11.01;76.28
39949;BME280;29070;48.102;-1.652;2023-02-19T09:27:41;102838.13;;;11.07;76.24
39949;BME280;29070;48.102;-1.652;2023-02-19T09:32:42;102834.75;;;11.15;75.84
39949;BME280;29070;48.102;-1.652;2023-02-19T09:37:42;102843.84;;;11.21;75.65
39949;BME280;29070;48.102;-1.652;2023-02-19T09:42:43;102852.94;;;11.26;75.44
39949;BME280;29070;48.102;-1.652;2023-02-19T09:47:43;102861.28;;;11.22;74.85
39949;BME280;29070;48.102;-1.652;2023-02-19T09:52:49;102852.38;;;11.33;75.01
39949;BME280;29070;48.102;-1.652;2023-02-19T09:57:50;102859.22;;;11.43;74.89
39949;BME280;29070;48.102;-1.652;2023-02-19T10:02:55;102860.88;;;11.44;74.47
39949;BME280;29070;48.102;-1.652;2023-02-19T10:08:03;102868.06;;;11.42;74.33
39949;BME280;29070;48.102;-1.652;2023-02-19T10:13:16;102882.22;;;11.41;73.80
39949;BME280;29070;48.102;-1.652;2023-02-19T10:18:20;102890.78;;;11.43;73.83
39949;BME280;29070;48.102;-1.652;2023-02-19T10:23:23;102879.38;;;11.53;73.85
39949;BME280;29070;48.102;-1.652;2023-02-19T10:28:29;102877.91;;;11.68;73.47
39949;BME280;29070;48.102;-1.652;2023-02-19T10:33:30;102881.06;;;11.72;73.40
39949;BME280;29070;48.102;-1.652;2023-02-19T10:38:39;102885.75;;;11.96;73.08
39949;BME280;29070;48.102;-1.652;2023-02-19T10:49:03;102887.97;;;12.27;72.78
39949;BME280;29070;48.102;-1.652;2023-02-19T10:54:30;102881.19;;;12.42;71.29
39949;BME280;29070;48.102;-1.652;2023-02-19T10:59:31;102880.34;;;12.59;72.07
39949;BME280;29070;48.102;-1.652;2023-02-19T11:04:32;102869.50;;;12.63;71.38
39949;BME280;29070;48.102;-1.652;2023-02-19T11:09:39;102886.34;;;12.70;71.41
39949;BME280;29070;48.102;-1.652;2023-02-19T11:14:43;102884.16;;;12.65;70.94
39949;BME280;29070;48.102;-1.652;2023-02-19T11:19:44;102897.84;;;12.69;70.83
39949;BME280;29070;48.102;-1.652;2023-02-19T11:24:49;102900.72;;;12.84;70.56
39949;BME280;29070;48.102;-1.652;2023-02-19T11:29:50;102909.41;;;13.02;70.33
39949;BME280;29070;48.102;-1.652;2023-02-19T11:35:03;102913.31;;;12.98;69.97
39949;BME280;29070;48.102;-1.652;2023-02-19T11:40:12;102920.03;;;12.92;69.83
39949;BME280;29070;48.102;-1.652;2023-02-19T11:50:27;102923.41;;;13.03;68.59
39949;BME280;29070;48.102;-1.652;2023-02-19T12:11:51;102915.09;;;13.24;67.08
39949;BME280;29070;48.102;-1.652;2023-02-19T12:17:03;102903.50;;;13.43;68.18
39949;BME280;29070;48.102;-1.652;2023-02-19T12:37:54;102888.66;;;13.42;65.77
39949;BME280;29070;48.102;-1.652;2023-02-19T12:43:19;102875.78;;;13.39;66.10
39949;BME280;29070;48.102;-1.652;2023-02-19T12:58:42;102838.78;;;14.06;66.11
39949;BME280;29070;48.102;-1.652;2023-02-19T13:03:49;102834.94;;;14.00;65.37
39949;BME280;29070;48.102;-1.652;2023-02-19T13:09:01;102816.16;;;13.95;64.89
39949;BME280;29070;48.102;-1.652;2023-02-19T13:19:20;102812.50;;;14.13;65.04
39949;BME280;29070;48.102;-1.652;2023-02-19T13:24:38;102807.22;;;14.13;64.26
39949;BME280;29070;48.102;-1.652;2023-02-19T13:40:19;102814.13;;;14.30;62.25
39949;BME280;29070;48.102;-1.652;2023-02-19T13:45:28;102811.34;;;14.23;63.37
39949;BME280;29070;48.102;-1.652;2023-02-19T13:50:32;102806.84;;;14.40;63.91
39949;BME280;29070;48.102;-1.652;2023-02-19T14:00:50;102809.34;;;14.34;63.35
39949;BME280;29070;48.102;-1.652;2023-02-19T14:06:05;102803.19;;;14.41;62.65
39949;BME280;29070;48.102;-1.652;2023-02-19T14:11:06;102801.88;;;14.62;63.40
39949;BME280;29070;48.102;-1.652;2023-02-19T14:21:36;102791.44;;;14.68;61.11
39949;BME280;29070;48.102;-1.652;2023-02-19T14:26:38;102788.97;;;14.67;61.96
39949;BME280;29070;48.102;-1.652;2023-02-19T14:31:39;102790.25;;;14.71;62.00
39949;BME280;29070;48.102;-1.652;2023-02-19T14:36:49;102786.56;;;14.89;61.71
39949;BME280;29070;48.102;-1.652;2023-02-19T14:41:55;102783.78;;;15.13;61.65
39949;BME280;29070;48.102;-1.652;2023-02-19T14:47:05;102780.41;;;14.96;61.27
39949;BME280;29070;48.102;-1.652;2023-02-19T14:52:25;102778.09;;;14.93;60.70
39949;BME280;29070;48.102;-1.652;2023-02-19T14:57:33;102769.69;;;14.90;60.77
39949;BME280;29070;48.102;-1.652;2023-02-19T15:02:40;102774.97;;;14.90;59.88
39949;BME280;29070;48.102;-1.652;2023-02-19T15:07:41;102773.28;;;14.97;61.03
39949;BME280;29070;48.102;-1.652;2023-02-19T15:12:46;102756.78;;;14.95;59.92
39949;BME280;29070;48.102;-1.652;2023-02-19T15:17:50;102759.09;;;14.90;60.60
39949;BME280;29070;48.102;-1.652;2023-02-19T15:22:52;102740.25;;;14.93;60.37
39949;BME280;29070;48.102;-1.652;2023-02-19T15:27:54;102741.34;;;15.06;60.49
39949;BME280;29070;48.102;-1.652;2023-02-19T15:32:58;102735.78;;;14.93;60.03
39949;BME280;29070;48.102;-1.652;2023-02-19T15:37:59;102741.56;;;14.97;60.11
39949;BME280;29070;48.102;-1.652;2023-02-19T15:43:00;102741.22;;;15.00;60.14
39949;BME280;29070;48.102;-1.652;2023-02-19T15:48:10;102742.72;;;15.25;59.30
39949;BME280;29070;48.102;-1.652;2023-02-19T15:53:15;102736.13;;;15.21;59.78
39949;BME280;29070;48.102;-1.652;2023-02-19T16:03:24;102735.59;;;15.03;59.46
39949;BME280;29070;48.102;-1.652;2023-02-19T16:08:30;102730.31;;;14.95;59.47
39949;BME280;29070;48.102;-1.652;2023-02-19T16:13:33;102733.03;;;14.86;59.31
39949;BME280;29070;48.102;-1.652;2023-02-19T16:18:33;102733.84;;;14.87;59.15
39949;BME280;29070;48.102;-1.652;2023-02-19T16:23:34;102731.44;;;14.77;59.17
39949;BME280;29070;48.102;-1.652;2023-02-19T16:28:40;102731.66;;;14.59;59.19
39949;BME280;29070;48.102;-1.652;2023-02-19T16:33:45;102734.16;;;14.53;59.32
39949;BME280;29070;48.102;-1.652;2023-02-19T16:49:21;102717.09;;;14.16;59.58
39949;BME280;29070;48.102;-1.652;2023-02-19T16:54:22;102718.06;;;14.15;59.59
39949;BME280;29070;48.102;-1.652;2023-02-19T16:59:23;102722.59;;;14.06;59.76
39949;BME280;29070;48.102;-1.652;2023-02-19T17:04:23;102725.06;;;13.91;59.89
39949;BME280;29070;48.102;-1.652;2023-02-19T17:09:24;102728.38;;;13.77;60.22
39949;BME280;29070;48.102;-1.652;2023-02-19T17:14:24;102731.69;;;13.62;60.06
39949;BME280;29070;48.102;-1.652;2023-02-19T17:19:24;102727.41;;;13.45;60.20
39949;BME280;29070;48.102;-1.652;2023-02-19T17:24:25;102730.66;;;13.30;60.19
39949;BME280;29070;48.102;-1.652;2023-02-19T17:29:25;102728.66;;;13.16;60.41
39949;BME280;29070;48.102;-1.652;2023-02-19T17:34:27;102719.59;;;13.02;60.66
39949;BME280;29070;48.102;-1.652;2023-02-19T17:39:27;102715.63;;;12.90;60.70
39949;BME280;29070;48.102;-1.652;2023-02-19T17:44:28;102722.97;;;12.78;60.76
39949;BME280;29070;48.102;-1.652;2023-02-19T17:49:28;102719.63;;;12.59;60.82
39949;BME280;29070;48.102;-1.652;2023-02-19T17:54:29;102717.59;;;12.45;61.01
39949;BME280;29070;48.102;-1.652;2023-02-19T17:59:29;102725.38;;;12.20;60.92
39949;BME280;29070;48.102;-1.652;2023-02-19T18:04:29;102733.63;;;11.99;61.21
39949;BME280;29070;48.102;-1.652;2023-02-19T18:09:30;102741.16;;;11.76;61.23
39949;BME280;29070;48.102;-1.652;2023-02-19T18:14:30;102750.06;;;11.57;61.69
39949;BME280;29070;48.102;-1.652;2023-02-19T18:19:31;102750.41;;;11.44;62.30
39949;BME280;29070;48.102;-1.652;2023-02-19T18:24:31;102753.66;;;11.38;62.66
39949;BME280;29070;48.102;-1.652;2023-02-19T18:29:32;102757.19;;;11.29;62.83
39949;BME280;29070;48.102;-1.652;2023-02-19T18:34:32;102759.06;;;11.19;63.12
39949;BME280;29070;48.102;-1.652;2023-02-19T18:39:33;102759.81;;;11.11;63.39
39949;BME280;29070;48.102;-1.652;2023-02-19T18:44:33;102770.34;;;11.01;63.39
39949;BME280;29070;48.102;-1.652;2023-02-19T18:49:34;102767.50;;;10.95;63.49
39949;BME280;29070;48.102;-1.652;2023-02-19T18:54:34;102768.53;;;10.84;63.65
39949;BME280;29070;48.102;-1.652;2023-02-19T18:59:35;102776.31;;;10.76;64.00
39949;BME280;29070;48.102;-1.652;2023-02-19T19:04:37;102787.28;;;10.61;63.77
39949;BME280;29070;48.102;-1.652;2023-02-19T19:09:37;102784.72;;;10.52;64.21
39949;BME280;29070;48.102;-1.652;2023-02-19T19:14:38;102780.59;;;10.39;64.46
39949;BME280;29070;48.102;-1.652;2023-02-19T19:19:38;102778.38;;;10.35;64.59
39949;BME280;29070;48.102;-1.652;2023-02-19T19:24:41;102782.38;;;10.29;64.62
39949;BME280;29070;48.102;-1.652;2023-02-19T19:29:42;102788.63;;;10.18;65.11
39949;BME280;29070;48.102;-1.652;2023-02-19T19:34:43;102787.13;;;10.06;64.73
39949;BME280;29070;48.102;-1.652;2023-02-19T19:39:44;102806.59;;;9.93;64.88
39949;BME280;29070;48.102;-1.652;2023-02-19T19:44:44;102802.19;;;9.84;65.48
39949;BME280;29070;48.102;-1.652;2023-02-19T19:49:45;102803.56;;;9.79;65.71
39949;BME280;29070;48.102;-1.652;2023-02-19T19:54:46;102805.09;;;9.71;65.56
39949;BME280;29070;48.102;-1.652;2023-02-19T19:59:48;102804.13;;;9.63;65.57
39949;BME280;29070;48.102;-1.652;2023-02-19T20:04:50;102802.44;;;9.52;65.91
39949;BME280;29070;48.102;-1.652;2023-02-19T20:09:50;102820.34;;;9.37;65.78
39949;BME280;29070;48.102;-1.652;2023-02-19T20:14:50;102816.19;;;9.25;66.26
39949;BME280;29070;48.102;-1.652;2023-02-19T20:19:51;102815.34;;;9.14;66.30
39949;BME280;29070;48.102;-1.652;2023-02-19T20:24:53;102810.06;;;9.05;66.87
39949;BME280;29070;48.102;-1.652;2023-02-19T20:29:53;102825.50;;;8.98;66.86
39949;BME280;29070;48.102;-1.652;2023-02-19T20:34:53;102821.47;;;8.94;66.86
39949;BME280;29070;48.102;-1.652;2023-02-19T20:39:54;102825.56;;;8.87;67.12
39949;BME280;29070;48.102;-1.652;2023-02-19T20:44:54;102820.16;;;8.78;66.95
39949;BME280;29070;48.102;-1.652;2023-02-19T20:49:55;102818.84;;;8.63;66.90
39949;BME280;29070;48.102;-1.652;2023-02-19T20:54:56;102816.13;;;8.44;66.41
39949;BME280;29070;48.102;-1.652;2023-02-19T20:59:56;102824.25;;;8.29;66.87
39949;BME280;29070;48.102;-1.652;2023-02-19T21:04:57;102821.97;;;8.15;67.34
39949;BME280;29070;48.102;-1.652;2023-02-19T21:09:57;102821.56;;;7.98;66.99
39949;BME280;29070;48.102;-1.652;2023-02-19T21:14:58;102820.47;;;7.80;67.02
39949;BME280;29070;48.102;-1.652;2023-02-19T21:19:58;102825.72;;;7.69;67.44
39949;BME280;29070;48.102;-1.652;2023-02-19T21:24:58;102824.53;;;7.61;67.96
39949;BME280;29070;48.102;-1.652;2023-02-19T21:29:59;102817.22;;;7.55;67.79
39949;BME280;29070;48.102;-1.652;2023-02-19T21:34:59;102820.28;;;7.49;68.23
39949;BME280;29070;48.102;-1.652;2023-02-19T21:40:00;102816.06;;;7.37;68.09
39949;BME280;29070;48.102;-1.652;2023-02-19T21:45:00;102818.56;;;7.27;68.08
39949;BME280;29070;48.102;-1.652;2023-02-19T21:50:01;102821.91;;;7.18;67.74
39949;BME280;29070;48.102;-1.652;2023-02-19T21:55:01;102820.25;;;7.05;68.27
39949;BME280;29070;48.102;-1.652;2023-02-19T22:00:02;102821.56;;;7.00;68.77
39949;BME280;29070;48.102;-1.652;2023-02-19T22:05:04;102826.53;;;6.92;68.51
39949;BME280;29070;48.102;-1.652;2023-02-19T22:10:07;102822.16;;;6.81;68.64
39949;BME280;29070;48.102;-1.652;2023-02-19T22:15:07;102819.16;;;6.74;69.19
39949;BME280;29070;48.102;-1.652;2023-02-19T22:20:08;102811.94;;;6.66;68.94
39949;BME280;29070;48.102;-1.652;2023-02-19T22:25:08;102806.34;;;6.60;69.33
39949;BME280;29070;48.102;-1.652;2023-02-19T22:30:09;102808.72;;;6.52;69.09
39949;BME280;29070;48.102;-1.652;2023-02-19T22:35:10;102805.25;;;6.40;69.20
39949;BME280;29070;48.102;-1.652;2023-02-19T22:40:11;102810.56;;;6.27;69.02
39949;BME280;29070;48.102;-1.652;2023-02-19T22:45:13;102809.69;;;6.15;68.81
39949;BME280;29070;48.102;-1.652;2023-02-19T22:50:21;102815.25;;;6.10;69.43
39949;BME280;29070;48.102;-1.652;2023-02-19T22:55:21;102825.69;;;6.10;69.87
39949;BME280;29070;48.102;-1.652;2023-02-19T23:00:22;102816.75;;;6.02;69.74
39949;BME280;29070;48.102;-1.652;2023-02-19T23:05:22;102827.22;;;5.89;69.74
39949;BME280;29070;48.102;-1.652;2023-02-19T23:10:23;102829.13;;;5.87;70.38
39949;BME280;29070;48.102;-1.652;2023-02-19T23:15:24;102823.94;;;5.74;69.63
39949;BME280;29070;48.102;-1.652;2023-02-19T23:20:24;102815.56;;;5.58;69.62
39949;BME280;29070;48.102;-1.652;2023-02-19T23:25:24;102816.75;;;5.53;70.35
39949;BME280;29070;48.102;-1.652;2023-02-19T23:30:25;102807.38;;;5.51;70.12
39949;BME280;29070;48.102;-1.652;2023-02-19T23:35:25;102815.63;;;5.45;70.72
39949;BME280;29070;48.102;-1.652;2023-02-19T23:40:26;102817.41;;;5.44;70.58
39949;BME280;29070;48.102;-1.652;2023-02-19T23:45:26;102801.81;;;5.31;70.12
39949;BME280;29070;48.102;-1.652;2023-02-19T23:50:28;102795.59;;;5.21;70.24
39949;BME280;29070;48.102;-1.652;2023-02-19T23:55:28;102795.81;;;5.18;70.73
